createdAt,value
2023-01-13T00:00:36.460Z,11.80
2023-01-13T00:03:04.788Z,11.80
2023-01-13T00:05:33.099Z,11.90
2023-01-13T00:08:01.337Z,11.90
2023-01-13T00:10:29.519Z,11.90
2023-01-13T00:12:59.045Z,11.90
2023-01-13T00:15:27.241Z,11.90
2023-01-13T00:17:55.713Z,11.90
2023-01-13T00:20:23.892Z,11.90
2023-01-13T00:22:52.075Z,11.90
2023-01-13T00:25:20.211Z,12.00
2023-01-13T00:27:48.327Z,12.00
2023-01-13T00:30:18.367Z,11.90
2023-01-13T00:32:46.531Z,12.00
2023-01-13T00:35:14.715Z,11.90
2023-01-13T00:37:42.873Z,11.90
2023-01-13T00:40:12.515Z,11.90
2023-01-13T00:42:57.899Z,11.90
2023-01-13T00:45:27.576Z,11.90
2023-01-13T00:47:55.905Z,11.90
2023-01-13T00:50:24.061Z,11.90
2023-01-13T00:52:52.189Z,11.90
2023-01-13T00:55:20.326Z,11.90
2023-01-13T00:57:48.480Z,11.90
2023-01-13T01:00:17.150Z,12.00
2023-01-13T01:02:46.751Z,12.00
2023-01-13T01:05:14.952Z,11.90
2023-01-13T01:07:43.047Z,11.90
2023-01-13T01:10:12.436Z,11.90
2023-01-13T01:12:40.644Z,12.00
2023-01-13T01:15:10.409Z,11.90
2023-01-13T01:17:38.742Z,11.90
2023-01-13T01:20:10.151Z,12.00
2023-01-13T01:22:38.278Z,12.00
2023-01-13T01:25:07.153Z,11.90
2023-01-13T01:27:35.507Z,12.00
2023-01-13T01:30:05.369Z,12.00
2023-01-13T01:32:35.573Z,12.00
2023-01-13T01:35:04.877Z,12.00
2023-01-13T01:37:34.390Z,11.90
2023-01-13T01:40:02.539Z,12.00
2023-01-13T01:42:48.220Z,12.00
2023-01-13T01:45:20.106Z,12.00
2023-01-13T01:47:53.977Z,12.10
2023-01-13T01:50:22.283Z,12.00
2023-01-13T01:52:57.842Z,12.10
2023-01-13T01:55:28.491Z,12.10
2023-01-13T01:58:03.228Z,12.00
2023-01-13T02:00:33.339Z,12.10
2023-01-13T02:03:02.411Z,12.10
2023-01-13T02:05:30.557Z,12.10
2023-01-13T02:08:01.659Z,12.10
2023-01-13T02:10:32.216Z,12.10
2023-01-13T02:13:03.279Z,12.10
2023-01-13T02:15:38.854Z,12.10
2023-01-13T02:18:27.912Z,12.00
2023-01-13T02:21:22.290Z,12.00
2023-01-13T02:24:53.027Z,12.00
2023-01-13T02:27:53.185Z,12.10
2023-01-13T02:30:53.988Z,12.10
2023-01-13T02:33:59.289Z,12.10
2023-01-13T02:36:36.289Z,12.10
2023-01-13T02:39:11.120Z,12.00
2023-01-13T02:42:01.124Z,12.00
2023-01-13T02:44:34.938Z,12.10
2023-01-13T02:47:08.817Z,12.10
2023-01-13T02:49:40.378Z,12.00
2023-01-13T02:52:12.721Z,12.00
2023-01-13T02:54:45.578Z,12.10
2023-01-13T02:57:16.485Z,12.10
2023-01-13T02:59:45.142Z,12.10
2023-01-13T03:02:20.020Z,12.10
2023-01-13T03:04:54.919Z,12.10
2023-01-13T03:08:00.060Z,12.00
2023-01-13T03:10:38.383Z,12.00
2023-01-13T03:13:20.047Z,12.00
2023-01-13T03:15:55.613Z,12.00
2023-01-13T03:18:37.168Z,12.00
2023-01-13T03:21:13.994Z,12.00
2023-01-13T03:23:51.382Z,12.00
2023-01-13T03:26:27.832Z,12.00
2023-01-13T03:29:01.313Z,12.00
2023-01-13T03:31:33.187Z,12.00
2023-01-13T03:34:08.715Z,12.00
2023-01-13T03:36:40.002Z,11.90
2023-01-13T03:39:12.830Z,12.00
2023-01-13T03:41:47.237Z,12.00
2023-01-13T03:44:26.555Z,11.90
2023-01-13T03:47:04.078Z,11.90
2023-01-13T03:49:39.920Z,12.00
2023-01-13T03:52:12.864Z,12.00
2023-01-13T03:54:47.687Z,11.90
2023-01-13T03:57:19.234Z,12.00
2023-01-13T03:59:51.846Z,12.00
2023-01-13T04:02:25.286Z,12.00
2023-01-13T04:04:59.502Z,12.00
2023-01-13T04:07:38.224Z,12.10
2023-01-13T04:10:10.037Z,12.10
2023-01-13T04:13:02.160Z,12.10
2023-01-13T04:15:34.019Z,12.10
2023-01-13T04:18:17.491Z,12.10
2023-01-13T04:20:48.812Z,12.10
2023-01-13T04:23:17.677Z,12.00
2023-01-13T04:25:46.899Z,12.00
2023-01-13T04:28:15.582Z,12.00
2023-01-13T04:30:44.582Z,12.00
2023-01-13T04:33:13.979Z,12.00
2023-01-13T04:35:42.653Z,12.00
2023-01-13T04:38:14.578Z,12.00
2023-01-13T04:40:43.383Z,11.90
2023-01-13T04:43:11.646Z,11.90
2023-01-13T04:45:40.062Z,11.80
2023-01-13T04:48:08.299Z,11.80
2023-01-13T04:50:36.675Z,11.80
2023-01-13T04:53:04.880Z,11.70
2023-01-13T04:55:35.268Z,11.70
2023-01-13T04:58:04.843Z,11.70
2023-01-13T05:00:34.943Z,11.80
2023-01-13T05:03:03.695Z,11.80
2023-01-13T05:05:32.363Z,11.80
2023-01-13T05:08:00.528Z,11.80
2023-01-13T05:10:28.973Z,11.90
2023-01-13T05:13:16.073Z,11.90
2023-01-13T05:16:01.901Z,12.00
2023-01-13T05:18:31.765Z,12.00
2023-01-13T05:20:59.939Z,12.10
2023-01-13T05:23:46.134Z,12.20
2023-01-13T05:26:14.445Z,12.20
2023-01-13T05:28:44.029Z,12.30
2023-01-13T05:31:14.885Z,12.40
2023-01-13T05:33:43.147Z,12.50
2023-01-13T05:36:11.428Z,12.50
2023-01-13T05:38:39.633Z,12.50
2023-01-13T05:41:25.243Z,12.50
2023-01-13T05:43:54.730Z,12.50
2023-01-13T05:46:22.892Z,12.60
2023-01-13T05:48:51.163Z,12.60
2023-01-13T05:51:19.731Z,12.50
2023-01-13T05:53:47.787Z,12.50
2023-01-13T05:56:17.923Z,12.40
2023-01-13T05:58:46.005Z,12.50
2023-01-13T06:01:17.576Z,12.40
2023-01-13T06:03:45.717Z,12.40
2023-01-13T06:06:13.980Z,12.30
2023-01-13T06:08:42.229Z,12.20
2023-01-13T06:11:10.651Z,12.10
2023-01-13T06:13:39.014Z,12.10
2023-01-13T06:16:07.511Z,12.00
2023-01-13T06:18:37.065Z,12.10
2023-01-13T06:21:05.274Z,12.00
2023-01-13T06:23:35.266Z,12.10
2023-01-13T06:26:09.420Z,12.10
2023-01-13T06:28:37.712Z,12.10
2023-01-13T06:31:08.463Z,12.10
2023-01-13T06:33:42.008Z,12.10
2023-01-13T06:36:16.056Z,11.90
2023-01-13T06:38:48.542Z,11.90
2023-01-13T06:41:17.695Z,11.90
2023-01-13T06:43:44.786Z,11.90
2023-01-13T06:46:13.053Z,12.00
2023-01-13T06:48:42.513Z,12.00
2023-01-13T06:51:10.685Z,12.10
2023-01-13T06:53:39.295Z,12.10
2023-01-13T06:56:07.945Z,12.10
2023-01-13T06:58:36.044Z,12.10
2023-01-13T07:01:06.458Z,12.10
2023-01-13T07:03:34.734Z,12.10
2023-01-13T07:06:04.375Z,12.20
2023-01-13T07:08:32.812Z,12.30
2023-01-13T07:11:02.855Z,12.30
2023-01-13T07:13:48.210Z,12.30
2023-01-13T07:16:16.358Z,12.40
2023-01-13T07:18:44.437Z,12.40
2023-01-13T07:21:18.682Z,12.30
2023-01-13T07:23:48.072Z,12.30
2023-01-13T07:26:16.879Z,12.30
2023-01-13T07:28:45.092Z,12.30
2023-01-13T07:31:18.379Z,12.40
2023-01-13T07:33:46.611Z,12.40
2023-01-13T07:36:16.311Z,12.40
2023-01-13T07:38:45.276Z,12.40
2023-01-13T07:41:31.900Z,12.40
2023-01-13T07:44:00.343Z,12.40
2023-01-13T07:46:28.706Z,12.50
2023-01-13T07:48:56.982Z,12.40
2023-01-13T07:51:26.432Z,12.40
2023-01-13T07:53:54.856Z,12.40
2023-01-13T07:56:23.139Z,12.40
2023-01-13T07:58:52.936Z,12.40
2023-01-13T08:01:21.631Z,12.40
2023-01-13T08:03:49.912Z,12.30
2023-01-13T08:06:18.048Z,12.30
2023-01-13T08:08:47.489Z,12.40
2023-01-13T08:11:15.599Z,12.40
2023-01-13T08:13:43.726Z,12.40
2023-01-13T08:16:13.870Z,12.50
2023-01-13T08:18:42.851Z,12.50
2023-01-13T08:21:15.152Z,12.50
2023-01-13T08:23:44.543Z,12.50
2023-01-13T08:26:17.065Z,12.50
2023-01-13T08:28:45.280Z,12.50
2023-01-13T08:31:16.391Z,12.60
2023-01-13T08:33:44.929Z,12.60
2023-01-13T08:36:13.804Z,12.60
2023-01-13T08:38:42.426Z,12.60
2023-01-13T08:41:11.798Z,12.50
2023-01-13T08:43:41.664Z,12.50
2023-01-13T08:46:09.792Z,12.50
2023-01-13T08:48:38.284Z,12.50
2023-01-13T08:51:09.431Z,12.50
2023-01-13T08:53:37.774Z,12.40
2023-01-13T08:56:10.898Z,12.30
2023-01-13T08:58:40.666Z,12.30
2023-01-13T09:01:12.390Z,12.30
2023-01-13T09:03:41.786Z,12.30
2023-01-13T09:06:09.841Z,12.20
2023-01-13T09:08:37.967Z,12.30
2023-01-13T09:11:26.246Z,12.20
2023-01-13T09:13:53.354Z,12.30
2023-01-13T09:16:22.865Z,12.30
2023-01-13T09:18:50.946Z,12.30
2023-01-13T09:21:21.058Z,12.40
2023-01-13T09:23:49.190Z,12.40
2023-01-13T09:26:21.064Z,12.40
2023-01-13T09:28:49.239Z,12.40
2023-01-13T09:31:17.407Z,12.40
2023-01-13T09:34:04.177Z,12.40
2023-01-13T09:36:32.302Z,12.40
2023-01-13T09:39:02.620Z,12.40
2023-01-13T09:41:51.126Z,12.60
2023-01-13T09:44:23.352Z,12.60
2023-01-13T09:46:54.595Z,12.60
2023-01-13T09:49:28.261Z,12.60
2023-01-13T09:52:03.851Z,12.60
2023-01-13T09:54:34.976Z,12.70
2023-01-13T09:57:03.184Z,12.70
2023-01-13T09:59:36.788Z,12.80
2023-01-13T10:02:29.237Z,12.80
2023-01-13T10:05:07.460Z,12.80
2023-01-13T10:07:41.219Z,12.80
2023-01-13T10:10:17.573Z,12.70
2023-01-13T10:13:06.182Z,12.70
2023-01-13T10:15:34.997Z,12.60
2023-01-13T10:18:13.972Z,12.60
2023-01-13T10:20:53.705Z,12.60
2023-01-13T10:23:43.887Z,12.60
2023-01-13T10:26:40.953Z,12.60
2023-01-13T10:29:21.690Z,12.50
2023-01-13T10:31:49.770Z,12.40
2023-01-13T10:34:17.878Z,12.40
2023-01-13T10:37:06.140Z,12.40
2023-01-13T10:39:42.273Z,12.40
2023-01-13T10:42:15.963Z,12.40
2023-01-13T10:44:52.920Z,12.50
2023-01-13T10:47:27.097Z,12.50
2023-01-13T10:50:24.169Z,12.50
2023-01-13T10:53:02.143Z,12.50
2023-01-13T10:55:33.150Z,12.50
2023-01-13T10:58:15.432Z,12.50
2023-01-13T11:00:43.788Z,12.60
2023-01-13T11:03:25.885Z,12.60
2023-01-13T11:05:55.807Z,12.60
2023-01-13T11:08:27.919Z,12.60
2023-01-13T11:10:58.433Z,12.60
2023-01-13T11:13:33.349Z,12.60
2023-01-13T11:16:06.656Z,12.60
2023-01-13T11:19:02.333Z,12.60
2023-01-13T11:21:35.801Z,12.60
2023-01-13T11:24:13.561Z,12.50
2023-01-13T11:26:48.384Z,12.40
2023-01-13T11:29:21.952Z,12.40
2023-01-13T11:31:55.236Z,12.40
2023-01-13T11:34:31.121Z,12.40
2023-01-13T11:37:02.509Z,12.40
2023-01-13T11:39:45.514Z,12.40
2023-01-13T11:42:21.794Z,12.40
2023-01-13T11:44:59.655Z,12.40
2023-01-13T11:47:29.010Z,12.40
2023-01-13T11:49:57.526Z,12.30
2023-01-13T11:52:34.089Z,12.30
2023-01-13T11:55:23.309Z,12.40
2023-01-13T11:58:05.302Z,12.40
2023-01-13T12:01:03.818Z,12.40
2023-01-13T12:03:36.629Z,12.40
2023-01-13T12:06:21.202Z,12.40
2023-01-13T12:09:23.918Z,12.50
2023-01-13T12:12:23.474Z,12.40
2023-01-13T12:15:36.607Z,12.40
2023-01-13T12:18:18.885Z,12.40
2023-01-13T12:20:58.482Z,12.40
2023-01-13T12:23:33.775Z,12.30
2023-01-13T12:26:07.718Z,12.40
2023-01-13T12:28:45.799Z,12.40
2023-01-13T12:31:15.227Z,12.40
2023-01-13T12:33:59.660Z,12.50
2023-01-13T12:36:34.179Z,12.50
2023-01-13T12:39:11.315Z,12.60
2023-01-13T12:42:00.633Z,12.60
2023-01-13T12:44:30.316Z,12.70
2023-01-13T12:47:01.004Z,12.70
2023-01-13T12:49:34.196Z,12.70
2023-01-13T12:52:15.449Z,12.70
2023-01-13T12:55:20.712Z,12.60
2023-01-13T12:58:16.551Z,12.60
2023-01-13T13:01:01.109Z,12.60
2023-01-13T13:03:32.856Z,12.60
2023-01-13T13:06:10.925Z,12.60
2023-01-13T13:08:58.139Z,12.50
2023-01-13T13:12:02.798Z,12.50
2023-01-13T13:15:07.193Z,12.60
2023-01-13T13:18:01.742Z,12.70
2023-01-13T13:21:04.528Z,12.70
2023-01-13T13:24:05.139Z,12.70
2023-01-13T13:26:38.736Z,12.70
2023-01-13T13:29:31.404Z,12.70
2023-01-13T13:32:21.938Z,12.70
2023-01-13T13:35:01.907Z,12.70
2023-01-13T13:37:55.620Z,12.60
2023-01-13T13:40:43.409Z,12.60
2023-01-13T13:43:31.735Z,12.50
2023-01-13T13:46:32.000Z,12.50
2023-01-13T13:49:00.116Z,12.50
2023-01-13T13:51:39.153Z,12.50
2023-01-13T13:54:11.361Z,12.50
2023-01-13T13:56:43.395Z,12.50
2023-01-13T13:59:13.419Z,12.40
2023-01-13T14:01:44.086Z,12.30
2023-01-13T14:04:16.772Z,12.30
2023-01-13T14:06:54.297Z,12.30
2023-01-13T14:09:23.697Z,12.40
2023-01-13T14:12:00.827Z,12.40
2023-01-13T14:14:29.913Z,12.40
2023-01-13T14:16:58.616Z,12.40
2023-01-13T14:19:31.505Z,12.30
2023-01-13T14:22:02.875Z,12.30
2023-01-13T14:24:32.165Z,12.30
2023-01-13T14:27:11.295Z,12.40
2023-01-13T14:29:39.687Z,12.30
2023-01-13T14:32:08.745Z,12.30
2023-01-13T14:34:37.771Z,12.30
2023-01-13T14:37:27.179Z,12.30
2023-01-13T14:39:55.669Z,12.30
2023-01-13T14:42:23.827Z,12.30
2023-01-13T14:44:52.615Z,12.30
2023-01-13T14:47:25.392Z,12.30
2023-01-13T14:49:59.097Z,12.30
2023-01-13T14:52:30.481Z,12.30
2023-01-13T14:55:29.416Z,12.40
2023-01-13T14:58:18.700Z,12.40
2023-01-13T15:00:46.881Z,12.40
2023-01-13T15:03:16.660Z,12.40
2023-01-13T15:05:49.683Z,12.40
2023-01-13T15:08:35.679Z,12.30
2023-01-13T15:11:06.686Z,12.20
2023-01-13T15:13:42.660Z,12.20
2023-01-13T15:16:17.835Z,12.20
2023-01-13T15:18:46.642Z,12.20
2023-01-13T15:21:15.669Z,12.20
2023-01-13T15:23:47.244Z,12.10
2023-01-13T15:26:25.614Z,12.10
2023-01-13T15:28:55.420Z,12.00
2023-01-13T15:31:25.252Z,12.00
2023-01-13T15:33:53.425Z,12.00
2023-01-13T15:36:25.689Z,12.00
2023-01-13T15:38:59.224Z,12.00
2023-01-13T15:41:45.447Z,12.00
2023-01-13T15:44:32.899Z,12.00
2023-01-13T15:47:03.448Z,11.90
2023-01-13T15:49:36.099Z,11.90
2023-01-13T15:52:05.187Z,11.90
2023-01-13T15:54:34.869Z,11.90
2023-01-13T16:01:15.815Z,11.90
2023-01-13T16:03:43.981Z,11.80
2023-01-13T16:06:18.172Z,11.80
2023-01-13T16:08:46.283Z,11.70
2023-01-13T16:11:15.958Z,11.70
2023-01-13T16:13:44.071Z,11.70
2023-01-13T16:16:20.191Z,11.70
2023-01-13T16:18:48.664Z,11.70
2023-01-13T16:21:19.219Z,11.70
2023-01-13T16:23:48.322Z,11.70
2023-01-13T16:26:21.965Z,11.60
2023-01-13T16:28:51.022Z,11.60
2023-01-13T16:31:24.458Z,11.60
2023-01-13T16:33:53.303Z,11.60
2023-01-13T16:36:22.489Z,11.60
2023-01-13T16:38:51.680Z,11.50
2023-01-13T16:41:22.044Z,11.50
2023-01-13T16:43:50.390Z,11.60
2023-01-13T16:46:24.654Z,11.60
2023-01-13T16:48:54.039Z,11.60
2023-01-13T16:51:23.049Z,11.60
2023-01-13T16:53:52.948Z,11.60
2023-01-13T16:56:26.903Z,11.60
2023-01-13T16:58:56.595Z,11.60
2023-01-13T17:01:26.924Z,11.60
2023-01-13T17:03:56.270Z,11.70
2023-01-13T17:06:28.495Z,11.60
2023-01-13T17:09:02.047Z,11.60
2023-01-13T17:11:31.697Z,11.60
2023-01-13T17:13:59.788Z,11.60
2023-01-13T17:16:28.280Z,11.60
2023-01-13T17:18:56.533Z,11.50
2023-01-13T17:21:24.613Z,11.50
2023-01-13T17:23:52.999Z,11.50
2023-01-13T17:26:33.228Z,11.50
2023-01-13T17:29:03.958Z,11.50
2023-01-13T17:31:32.223Z,11.50
2023-01-13T17:34:01.099Z,11.40
2023-01-13T17:36:29.635Z,11.40
2023-01-13T17:38:58.160Z,11.40
2023-01-13T17:41:26.919Z,11.30
2023-01-13T17:43:56.734Z,11.20
2023-01-13T17:46:24.899Z,11.20
2023-01-13T17:48:54.049Z,11.20
2023-01-13T17:51:25.145Z,11.10
2023-01-13T17:53:54.925Z,11.10
2023-01-13T17:56:24.657Z,11.20
2023-01-13T17:58:52.789Z,11.30
2023-01-13T18:01:23.704Z,11.30
2023-01-13T18:03:52.384Z,11.20
2023-01-13T18:06:23.740Z,11.20
2023-01-13T18:08:52.543Z,11.20
2023-01-13T18:11:22.693Z,11.10
2023-01-13T18:13:55.058Z,11.20
2023-01-13T18:16:27.362Z,11.10
2023-01-13T18:19:19.620Z,11.10
2023-01-13T18:22:06.175Z,11.10
2023-01-13T18:24:52.291Z,11.10
2023-01-13T18:27:27.123Z,11.00
2023-01-13T18:29:57.499Z,11.00
2023-01-13T18:32:32.844Z,11.00
2023-01-13T18:35:05.956Z,10.90
2023-01-13T18:37:35.882Z,10.90
2023-01-13T18:40:04.931Z,10.90
2023-01-13T18:42:50.647Z,10.90
2023-01-13T18:45:19.679Z,10.90
2023-01-13T18:47:49.197Z,10.90
2023-01-13T18:50:18.834Z,10.90
2023-01-13T18:52:47.579Z,11.00
2023-01-13T18:55:16.015Z,11.00
2023-01-13T18:57:44.275Z,11.00
2023-01-13T19:00:15.032Z,11.00
2023-01-13T19:02:43.294Z,11.00
2023-01-13T19:05:12.837Z,11.00
2023-01-13T19:07:41.176Z,11.00
2023-01-13T19:10:10.510Z,11.00
2023-01-13T19:12:38.617Z,11.00
2023-01-13T19:15:11.262Z,11.00
2023-01-13T19:17:39.659Z,11.00
2023-01-13T19:20:08.841Z,11.00
2023-01-13T19:22:38.332Z,10.90
2023-01-13T19:25:06.987Z,11.00
2023-01-13T19:27:35.156Z,11.00
2023-01-13T19:30:03.934Z,11.00
2023-01-13T19:32:34.540Z,11.00
2023-01-13T19:35:02.711Z,11.00
2023-01-13T19:37:33.497Z,11.10
2023-01-13T19:40:09.063Z,11.10
2023-01-13T19:42:54.914Z,11.00
2023-01-13T19:45:30.560Z,11.00
2023-01-13T19:48:01.724Z,11.00
2023-01-13T19:50:30.220Z,10.90
2023-01-13T19:52:58.412Z,10.90
2023-01-13T19:55:28.097Z,10.80
2023-01-13T19:57:56.319Z,10.90
2023-01-13T20:00:24.463Z,10.80
2023-01-13T20:02:53.221Z,10.80
2023-01-13T20:05:25.933Z,10.70
2023-01-13T20:07:54.731Z,10.70
2023-01-13T20:10:23.799Z,10.70
2023-01-13T20:12:53.287Z,10.70
2023-01-13T20:15:21.443Z,10.70
2023-01-13T20:17:49.577Z,10.70
2023-01-13T20:20:18.629Z,10.60
2023-01-13T20:22:46.859Z,10.60
2023-01-13T20:25:17.466Z,10.60
2023-01-13T20:27:46.495Z,10.60
2023-01-13T20:30:16.596Z,10.60
2023-01-13T20:32:45.756Z,10.60
2023-01-13T20:35:13.920Z,10.60
2023-01-13T20:37:43.775Z,10.60
2023-01-13T20:40:15.392Z,10.70
2023-01-13T20:42:45.223Z,10.70
2023-01-13T20:45:20.540Z,10.60
2023-01-13T20:47:48.773Z,10.60
2023-01-13T20:50:17.075Z,10.60
2023-01-13T20:52:45.689Z,10.60
2023-01-13T20:55:14.540Z,10.60
2023-01-13T20:57:42.944Z,10.60
2023-01-13T21:00:12.051Z,10.60
2023-01-13T21:02:43.992Z,10.60
2023-01-13T21:05:12.204Z,10.60
2023-01-13T21:07:40.547Z,10.60
2023-01-13T21:10:11.333Z,10.60
2023-01-13T21:12:57.080Z,10.50
2023-01-13T21:15:25.827Z,10.50
2023-01-13T21:18:12.946Z,10.50
2023-01-13T21:20:41.145Z,10.50
2023-01-13T21:23:11.418Z,10.50
2023-01-13T21:25:40.212Z,10.50
2023-01-13T21:28:11.401Z,10.40
2023-01-13T21:30:40.036Z,10.40
2023-01-13T21:33:13.303Z,10.40
2023-01-13T21:35:41.561Z,10.30
2023-01-13T21:38:11.769Z,10.30
2023-01-13T21:40:40.054Z,10.30
2023-01-13T21:43:27.972Z,10.20
2023-01-13T21:46:13.507Z,10.20
2023-01-13T21:48:43.002Z,10.20
2023-01-13T21:51:11.114Z,10.20
2023-01-13T21:53:39.446Z,10.30
2023-01-13T21:56:07.990Z,10.30
2023-01-13T21:58:36.055Z,10.30
2023-01-13T22:01:04.420Z,10.30
2023-01-13T22:03:54.632Z,10.40
2023-01-13T22:06:24.607Z,10.40
2023-01-13T22:08:54.069Z,10.40
2023-01-13T22:11:22.272Z,10.50
2023-01-13T22:14:09.352Z,10.50
2023-01-13T22:16:39.919Z,10.60
2023-01-13T22:19:08.791Z,10.60
2023-01-13T22:21:38.292Z,10.60
2023-01-13T22:24:07.109Z,10.60
2023-01-13T22:26:35.264Z,10.50
2023-01-13T22:29:03.426Z,10.50
2023-01-13T22:31:31.822Z,10.50
2023-01-13T22:33:59.917Z,10.40
2023-01-13T22:36:28.119Z,10.40
2023-01-13T22:39:00.251Z,10.40
2023-01-13T22:41:28.549Z,10.30
2023-01-13T22:43:56.708Z,10.30
2023-01-13T22:46:24.968Z,10.40
2023-01-13T22:48:55.675Z,10.30
2023-01-13T22:51:23.867Z,10.30
2023-01-13T22:53:52.183Z,10.30
2023-01-13T22:56:23.465Z,10.30
2023-01-13T22:58:54.457Z,10.30
2023-01-13T23:01:22.995Z,10.20
2023-01-13T23:03:51.606Z,10.20
2023-01-13T23:06:21.355Z,10.30
2023-01-13T23:08:49.732Z,10.20
2023-01-13T23:11:20.009Z,10.20
2023-01-13T23:13:49.494Z,10.10
2023-01-13T23:16:21.064Z,10.10
2023-01-13T23:18:49.613Z,10.10
2023-01-13T23:21:20.635Z,10.10
2023-01-13T23:23:49.336Z,10.10
2023-01-13T23:26:17.970Z,10.10
2023-01-13T23:28:46.455Z,10.10
2023-01-13T23:31:17.896Z,10.10
2023-01-13T23:33:46.697Z,10.10
2023-01-13T23:36:16.507Z,10.00
2023-01-13T23:38:44.690Z,10.10
2023-01-13T23:41:15.361Z,10.10
2023-01-13T23:43:43.535Z,10.10
2023-01-13T23:46:13.920Z,10.10
2023-01-13T23:48:43.667Z,10.10
2023-01-13T23:51:13.293Z,10.00
2023-01-13T23:53:43.336Z,10.00
2023-01-13T23:56:14.393Z,10.00
2023-01-13T23:58:42.908Z,9.90
